createdAt,value
2017-01-30T15:57:04.223Z,94.93
2017-01-30T15:58:17.701Z,93.89
2017-01-30T15:59:31.561Z,93.99
2017-01-30T16:00:45.236Z,93.7
2017-01-30T16:01:58.775Z,94.27
2017-01-30T16:03:13.997Z,94.37
2017-01-30T16:04:27.451Z,94.18
2017-01-30T16:08:13.930Z,95.79
2017-01-30T16:09:29.669Z,95.79
2017-01-30T16:10:46.064Z,96.17
2017-01-30T16:11:59.859Z,95.98
2017-01-30T16:13:13.672Z,95.98
2017-01-30T16:14:27.152Z,95.7
2017-01-30T16:15:40.728Z,96.26
2017-01-30T16:16:54.226Z,95.79
2017-01-30T16:18:08.149Z,96.17
2017-01-30T16:19:22.090Z,96.17
2017-01-30T16:20:35.720Z,96.36
2017-01-30T16:21:49.206Z,95.98
2017-01-30T16:23:04.133Z,96.17
2017-01-30T16:24:17.690Z,96.08
2017-01-30T16:25:29.154Z,95.79
2017-01-30T16:26:40.744Z,95.98
2017-01-30T16:27:52.770Z,96.08
2017-01-30T16:29:07.257Z,96.17
2017-01-30T16:30:21.583Z,96.08
2017-01-30T16:31:35.617Z,96.55
2017-01-30T16:32:50.002Z,96.55
2017-01-30T16:34:05.658Z,96.36
2017-01-30T16:35:19.308Z,96.36
2017-01-30T16:36:33.124Z,95.7
2017-01-30T16:37:47.116Z,96.08
2017-01-30T16:39:00.640Z,95.89
2017-01-30T16:40:15.139Z,95.98
2017-01-30T16:41:28.566Z,95.89
2017-01-30T16:42:42.427Z,95.51
2017-01-30T16:43:55.919Z,95.79
2017-01-30T16:45:09.994Z,95.31
2017-01-30T16:46:25.217Z,95.22
2017-01-30T16:47:38.927Z,95.7
2017-01-30T16:48:53.570Z,95.6
2017-01-30T16:50:08.526Z,96.08
2017-01-30T16:51:22.897Z,95.51
2017-01-30T16:52:37.359Z,95.7
2017-01-30T16:53:50.851Z,95.7
2017-01-30T16:56:05.666Z,95.12
2017-01-30T16:57:20.225Z,95.22
2017-01-30T16:58:34.135Z,95.12
2017-01-30T16:59:47.528Z,94.74
2017-01-30T17:01:01.004Z,94.93
2017-01-30T17:02:14.798Z,94.93
2017-01-30T17:03:28.888Z,95.51
2017-01-30T17:04:42.260Z,95.51
2017-01-30T17:05:56.066Z,95.41
2017-01-30T17:07:09.585Z,95.51
2017-01-30T17:08:22.970Z,95.12
2017-01-30T17:09:37.206Z,95.31
2017-01-30T17:10:50.603Z,95.31
2017-01-30T17:12:06.569Z,95.41
2017-01-30T17:13:20.008Z,95.6
2017-01-30T17:14:33.438Z,96.17
2017-01-30T17:15:49.680Z,95.7
2017-01-30T17:17:03.115Z,95.6
2017-01-30T17:18:16.491Z,95.41
2017-01-30T17:19:29.833Z,95.79
2017-01-30T17:20:43.185Z,95.6
2017-01-30T17:21:56.850Z,95.6
2017-01-30T17:23:10.286Z,96.45
2017-01-30T17:24:23.669Z,95.6
2017-01-30T17:25:37.033Z,95.89
2017-01-30T17:26:50.821Z,95.89
2017-01-30T17:28:04.579Z,95.98
2017-01-30T17:29:17.949Z,95.51
2017-01-30T17:30:31.780Z,95.79
2017-01-30T17:31:45.149Z,95.98
2017-01-30T17:32:58.505Z,96.08
2017-01-30T17:34:13.426Z,95.79
2017-01-30T17:35:26.827Z,95.7
2017-01-30T17:36:40.173Z,95.98
2017-01-30T17:37:53.590Z,96.17
2017-01-30T17:39:07.421Z,95.89
2017-01-30T17:40:21.074Z,96.17
2017-01-30T17:41:34.455Z,96.08
2017-01-30T17:42:47.807Z,95.98
2017-01-30T17:44:01.207Z,96.08
2017-01-30T17:45:14.972Z,96.08
2017-01-30T17:46:28.657Z,95.98
2017-01-30T17:47:42.830Z,96.17
2017-01-30T17:48:56.692Z,96.17
2017-01-30T17:50:10.126Z,96.45
2017-01-30T17:51:23.853Z,96.17
2017-01-30T17:52:37.901Z,96.36
2017-01-30T17:53:51.281Z,95.89
2017-01-30T17:55:04.717Z,96.17
2017-01-30T17:56:18.487Z,96.55
2017-01-30T17:57:31.828Z,96.36
2017-01-30T18:00:00.569Z,97.02
2017-01-30T18:02:49.199Z,97.5
2017-01-30T18:04:04.025Z,97.22
2017-01-30T18:05:17.419Z,97.12
2017-01-30T18:06:31.225Z,97.22
2017-01-30T18:07:44.589Z,97.02
2017-01-30T18:08:58.219Z,97.12
2017-01-30T18:10:12.009Z,97.12
2017-01-30T18:11:25.405Z,97.69
2017-01-30T18:12:38.791Z,97.31
2017-01-30T18:13:52.132Z,97.97
2017-01-30T18:15:05.844Z,97.5
2017-01-30T18:16:19.717Z,97.88
2017-01-30T18:17:33.071Z,97.97
2017-01-30T18:18:46.839Z,98.07
2017-01-30T18:20:00.165Z,98.26
2017-01-30T18:21:13.890Z,97.78
2017-01-30T18:22:27.279Z,98.16
2017-01-30T18:23:40.647Z,97.78
2017-01-30T18:24:54.247Z,98.54
2017-01-30T18:26:07.662Z,97.88
2017-01-30T18:27:23.166Z,97.69
2017-01-30T18:28:36.574Z,97.88
2017-01-30T18:29:50.354Z,98.07
2017-01-30T18:31:03.811Z,98.64
2017-01-30T18:32:18.907Z,97.88
2017-01-30T18:33:32.576Z,98.73
2017-01-30T18:34:48.130Z,97.88
2017-01-30T18:36:01.519Z,97.97
2017-01-30T18:37:15.851Z,97.88
2017-01-30T18:39:01.240Z,97.88
2017-01-30T18:40:14.920Z,97.69
2017-01-30T18:41:28.722Z,98.07
2017-01-30T18:42:43.331Z,97.97
2017-01-30T18:43:57.574Z,98.35
2017-01-30T18:45:10.956Z,97.69
2017-01-30T18:46:24.624Z,97.88
2017-01-30T18:47:38.047Z,97.88
2017-01-30T18:48:52.942Z,97.69
2017-01-30T18:50:06.315Z,97.69
2017-01-30T18:51:20.134Z,97.88
2017-01-30T18:52:33.814Z,97.31
2017-01-30T18:53:47.646Z,97.97
2017-01-30T18:55:01.478Z,97.69
2017-01-30T18:56:15.259Z,98.07
2017-01-30T18:57:28.639Z,97.97
2017-01-30T18:58:42.755Z,97.69
2017-01-30T18:59:56.137Z,97.88
2017-01-30T19:01:09.535Z,97.6
2017-01-30T19:02:22.927Z,97.31
2017-01-30T19:03:36.521Z,97.78
2017-01-30T19:04:50.273Z,97.78
2017-01-30T19:06:03.655Z,97.02
2017-01-30T19:07:17.041Z,97.02
2017-01-30T19:08:30.423Z,97.12
2017-01-30T19:09:43.874Z,96.64
2017-01-30T19:10:58.000Z,97.02
2017-01-30T19:12:11.387Z,96.83
2017-01-30T19:13:24.853Z,97.02
2017-01-30T19:14:38.733Z,96.36
2017-01-30T19:15:52.765Z,96.08
2017-01-30T19:17:06.479Z,96.26
2017-01-30T19:18:20.442Z,96.17
2017-01-30T19:19:35.557Z,96.45
2017-01-30T19:20:49.484Z,96.36
2017-01-30T19:22:02.929Z,96.36
2017-01-30T19:23:16.672Z,95.98
2017-01-30T19:24:30.052Z,95.79
2017-01-30T19:25:43.601Z,96.08
2017-01-30T19:26:57.422Z,95.7
2017-01-30T19:28:11.304Z,95.98
2017-01-30T19:29:24.974Z,95.22
2017-01-30T19:30:38.513Z,95.6
2017-01-30T19:31:52.351Z,95.79
2017-01-30T19:33:06.465Z,95.31
2017-01-30T19:34:19.938Z,95.41
2017-01-30T19:35:33.744Z,95.12
2017-01-30T19:36:47.220Z,95.7
2017-01-30T19:38:00.608Z,95.79
2017-01-30T19:39:14.089Z,95.79
2017-01-30T19:40:27.508Z,95.51
2017-01-30T19:41:41.313Z,95.27
2017-01-30T19:42:54.786Z,95.41
2017-01-30T19:44:08.596Z,95.17
2017-01-30T19:45:22.606Z,94.74
2017-01-30T19:46:37.755Z,95.51
2017-01-30T19:47:51.422Z,95.31
2017-01-30T19:49:05.264Z,95.08
2017-01-30T19:50:19.094Z,94.98
2017-01-30T19:51:35.123Z,94.79
2017-01-30T19:52:48.543Z,94.79
2017-01-30T19:54:02.648Z,95.08
2017-01-30T19:55:16.056Z,95.08
2017-01-30T19:56:29.849Z,95.17
2017-01-30T19:57:43.346Z,95.08
2017-01-30T19:58:57.248Z,95.08
2017-01-30T20:00:10.989Z,94.98
2017-01-30T20:01:25.271Z,94.51
2017-01-30T20:02:39.187Z,94.98
2017-01-30T20:03:52.634Z,94.42
2017-01-30T20:05:06.829Z,94.79
2017-01-30T20:06:20.496Z,94.79
2017-01-30T20:07:34.364Z,94.51
2017-01-30T20:08:47.766Z,94.89
2017-01-30T20:10:01.206Z,94.51
2017-01-30T20:11:14.607Z,94.51
2017-01-30T20:12:28.283Z,95.08
2017-01-30T20:13:42.954Z,94.6
2017-01-30T20:14:56.334Z,94.7
2017-01-30T20:16:10.145Z,94.51
2017-01-30T20:17:23.961Z,94.51
2017-01-30T20:18:38.088Z,94.6
2017-01-30T20:19:51.516Z,94.51
2017-01-30T20:21:05.342Z,94.51
2017-01-30T20:22:19.539Z,94.23
2017-01-30T20:23:33.045Z,94.51
2017-01-30T20:24:46.742Z,93.84
2017-01-30T20:26:00.571Z,94.32
2017-01-30T20:27:14.792Z,94.42
2017-01-30T20:28:29.923Z,94.7
2017-01-30T20:29:46.128Z,94.6
2017-01-30T20:31:11.470Z,94.51
2017-01-30T20:32:33.799Z,94.74
2017-01-30T20:33:56.651Z,94.79
2017-01-30T20:35:19.259Z,94.42
2017-01-30T20:36:41.805Z,94.03
2017-01-30T20:38:02.123Z,94.6
2017-01-30T20:39:24.392Z,93.94
2017-01-30T20:40:46.649Z,93.65
2017-01-30T20:42:10.076Z,93.84
2017-01-30T20:43:32.033Z,93.94
2017-01-30T20:44:52.433Z,94.03
2017-01-30T20:46:12.605Z,93.75
2017-01-30T20:47:30.238Z,93.84
2017-01-30T20:48:49.289Z,93.84
2017-01-30T20:50:13.637Z,93.84
2017-01-30T20:51:36.178Z,93.65
2017-01-30T20:52:51.016Z,93.94
2017-01-30T20:54:05.030Z,93.75
2017-01-30T20:55:18.458Z,94.23
2017-01-30T20:56:32.764Z,93.94
2017-01-30T20:57:46.525Z,93.65
2017-01-30T20:59:00.600Z,93.37
2017-01-30T21:00:14.452Z,93.56
2017-01-30T21:01:27.872Z,94.13
2017-01-30T21:02:41.766Z,94.13
2017-01-30T21:03:55.194Z,94.23
2017-01-30T21:05:09.714Z,93.94
2017-01-30T21:06:24.026Z,93.94
2017-01-30T21:07:38.338Z,94.6
2017-01-30T21:08:52.364Z,93.84
2017-01-30T21:10:07.959Z,93.94
2017-01-30T21:11:21.867Z,94.32
2017-01-30T21:12:35.472Z,93.37
2017-01-30T21:13:49.007Z,94.13
2017-01-30T21:15:03.301Z,93.75
2017-01-30T21:16:17.208Z,93.46
2017-01-30T21:17:30.926Z,93.56
2017-01-30T21:18:44.752Z,93.27
2017-01-30T21:19:58.181Z,93.18
2017-01-30T21:21:11.990Z,93.08
2017-01-30T21:22:25.908Z,92.8
2017-01-30T21:23:39.557Z,92.61
2017-01-30T21:24:53.404Z,92.99
2017-01-30T21:26:07.262Z,92.9
2017-01-30T21:27:21.104Z,92.99
2017-01-30T21:28:34.942Z,93.27
2017-01-30T21:29:49.083Z,93.08
2017-01-30T21:31:02.579Z,93.37
2017-01-30T21:32:16.032Z,93.18
2017-01-30T21:33:29.890Z,93.56
2017-01-30T21:34:43.857Z,93.84
2017-01-30T21:35:58.079Z,93.46
2017-01-30T21:37:12.128Z,93.65
2017-01-30T21:38:25.605Z,93.56
2017-01-30T21:39:39.508Z,93.18
2017-01-30T21:40:52.903Z,93.75
2017-01-30T21:42:06.572Z,93.65
2017-01-30T21:43:20.445Z,93.75
2017-01-30T21:44:34.326Z,93.75
2017-01-30T21:45:48.136Z,93.75
2017-01-30T21:47:01.533Z,93.37
2017-01-30T21:48:15.369Z,93.56
2017-01-30T21:49:28.767Z,92.99
2017-01-30T21:50:42.564Z,92.9
2017-01-30T21:51:56.426Z,92.9
2017-01-30T21:53:09.825Z,93.46
2017-01-30T21:54:23.536Z,93.27
2017-01-30T21:55:37.765Z,92.99
2017-01-30T21:56:51.565Z,93.27
2017-01-30T21:58:05.002Z,93.37
2017-01-30T21:59:18.852Z,93.37
2017-01-30T22:00:32.589Z,93.18
2017-01-30T22:01:45.977Z,93.27
2017-01-30T22:02:59.411Z,93.08
2017-01-30T22:04:12.892Z,93.56
2017-01-30T22:05:26.275Z,93.84
2017-01-30T22:06:39.973Z,93.08
2017-01-30T22:07:54.215Z,93.94
2017-01-30T22:09:08.026Z,93.27
2017-01-30T22:10:22.681Z,93.94
2017-01-30T22:11:36.049Z,93.84
2017-01-30T22:12:50.089Z,93.75
2017-01-30T22:14:03.486Z,93.51
2017-01-30T22:15:18.123Z,93.8
2017-01-30T22:16:31.505Z,94.27
2017-01-30T22:17:45.290Z,94.56
2017-01-30T22:18:59.378Z,94.27
2017-01-30T22:20:14.749Z,94.46
2017-01-30T22:21:28.986Z,94.84
2017-01-30T22:22:42.815Z,94.93
2017-01-30T22:23:56.984Z,94.56
2017-01-30T22:25:11.080Z,94.56
2017-01-30T22:26:26.691Z,94.74
2017-01-30T22:27:40.100Z,94.37
2017-01-30T22:28:53.537Z,94.56
2017-01-30T22:30:07.717Z,94.37
2017-01-30T22:31:21.429Z,95.12
2017-01-30T22:32:34.816Z,94.84
2017-01-30T22:33:48.645Z,95.31
2017-01-30T22:35:02.430Z,95.6
2017-01-30T22:36:15.927Z,94.74
2017-01-30T22:37:29.990Z,94.93
2017-01-30T22:38:43.783Z,95.6
2017-01-30T22:39:57.165Z,95.6
2017-01-30T22:41:10.660Z,94.84
2017-01-30T22:42:24.480Z,94.84
2017-01-30T22:43:38.117Z,94.93
2017-01-30T22:44:51.461Z,94.93
2017-01-30T22:46:04.851Z,94.84
2017-01-30T22:47:18.269Z,95.6
2017-01-30T22:48:32.064Z,95.6
2017-01-30T22:49:46.554Z,95.7
2017-01-30T22:51:00.344Z,95.03
2017-01-30T22:52:13.765Z,94.93
2017-01-30T22:53:27.123Z,94.65
2017-01-30T22:54:40.454Z,94.65
2017-01-30T22:55:54.124Z,95.22
2017-01-30T22:57:08.352Z,94.74
2017-01-30T22:58:22.951Z,95.03
2017-01-30T22:59:36.335Z,94.27
2017-01-30T23:00:50.214Z,94.74
2017-01-30T23:02:04.391Z,94.42
2017-01-30T23:03:18.049Z,94.46
2017-01-30T23:04:31.421Z,94.56
2017-01-30T23:05:45.198Z,94.32
2017-01-30T23:06:58.994Z,93.75
2017-01-30T23:08:12.711Z,93.84
2017-01-30T23:09:26.069Z,93.75
2017-01-30T23:10:39.475Z,93.84
2017-01-30T23:11:53.374Z,93.94
2017-01-30T23:13:07.148Z,93.51
2017-01-30T23:14:21.677Z,93.7
2017-01-30T23:15:35.208Z,93.89
2017-01-30T23:16:48.562Z,93.7
2017-01-30T23:18:02.347Z,94.08
2017-01-30T23:19:15.781Z,93.89
2017-01-30T23:20:29.483Z,93.7
2017-01-30T23:21:43.689Z,93.65
2017-01-30T23:22:57.053Z,93.56
2017-01-30T23:24:10.677Z,93.18
2017-01-30T23:25:24.068Z,93.18
2017-01-30T23:26:38.543Z,93.18
2017-01-30T23:27:51.887Z,92.99
2017-01-30T23:29:05.685Z,92.9
2017-01-30T23:30:19.096Z,92.9
2017-01-30T23:31:32.915Z,93.18
2017-01-30T23:32:46.587Z,93.13
2017-01-30T23:34:00.381Z,93.32
2017-01-30T23:35:14.182Z,93.51
2017-01-30T23:36:27.551Z,93.6
2017-01-30T23:37:40.885Z,93.8
2017-01-30T23:38:54.944Z,93.94
2017-01-30T23:40:08.792Z,93.04
2017-01-30T23:41:22.159Z,93.04
2017-01-30T23:42:37.684Z,93.18
2017-01-30T23:43:51.062Z,93.04
2017-01-30T23:45:06.348Z,92.9
2017-01-30T23:46:19.688Z,91.75
2017-01-30T23:47:33.431Z,91.66
2017-01-30T23:48:46.808Z,91.56
2017-01-30T23:50:00.591Z,91.38
2017-01-30T23:51:14.362Z,91.66
2017-01-30T23:52:27.762Z,90.99
2017-01-30T23:53:41.977Z,90.52
2017-01-30T23:54:55.363Z,90.14
2017-01-30T23:56:09.220Z,89.95
2017-01-30T23:57:22.908Z,89.57
2017-01-30T23:58:36.319Z,89.28
2017-01-30T23:59:50.230Z,89.28
